Latest Coastal Weather Observations for Townsville

IDQ60701

Issued at 11:22 pm EST Monday 8 August 2022 (issued every 10 minutes, with the page automatically refreshed every 10 minutes)

About coastal observations | Map of coastal stations | Coastal observations for QLD | Marine services | Other Formats
Station Details ID: 032040 Name: TOWNSVILLE AERO Lat: -19.25 Lon: 146.77 Height: 4.34 m
Data from the previous 72 hours. | See also: Recent months at Townsville
Date/Time
EST
Wind Sea
Height
m
Swell Vis
km
Cloud Weather Temp
°C
Press
MSL
hPa
Rain since
9am
mm
Dir  Spd
kts
Gust
kts
Height
m
Period
s
Dir
08/11:00pm ESE 8 11 - - - - 10 Partly cloudy - 20.0 1018.3 0.0
08/10:30pm ESE 9 12 - - - - 10 Cloudy - 20.3 1018.2 0.0
08/10:00pm SE 9 11 - - - - 10 Partly cloudy - 20.3 1018.2 0.0
08/09:30pm ESE 8 11 - - - - 10 Cloudy - 20.9 1018.0 0.0
08/09:00pm ESE 7 10 - - - - 10 Mostly cloudy - 20.3 1017.8 0.0
08/08:30pm ESE 8 12 - - - - 10 Partly cloudy - 20.4 1017.6 0.0
08/08:00pm ESE 7 9 - - - - 10 Partly cloudy - 20.5 1017.3 0.0
08/07:30pm ESE 7 10 - - - - 10 Partly cloudy - 20.3 1017.0 0.0
08/07:00pm ESE 6 7 - - - - 10 Partly cloudy - 20.3 1016.6 0.0
08/06:30pm ESE 6 8 - - - - 10 Partly cloudy - 20.7 1016.3 0.0
08/06:00pm E 6 8 - - - - 10 Partly cloudy - 21.5 1015.9 0.0
08/05:30pm E 8 10 - - - - 10 Partly cloudy - 22.5 1015.5 0.0
08/05:00pm NE 10 13 - - - - 10 Mostly clear - 22.7 1015.5 0.0
08/04:30pm ENE 10 14 - - - - 10 Mostly clear - 23.3 1015.1 0.0
08/04:00pm ENE 12 16 - - - - 10 Mostly clear - 23.4 1014.9 0.0
08/03:30pm ENE 14 16 - - - - 10 Partly cloudy - 23.4 1014.9 0.0
08/03:00pm ENE 14 16 - - - - 10 Cloudy - 23.0 1014.9 0.0
08/02:30pm ENE 12 16 - - - - 10 Mostly cloudy - 23.0 1015.1 0.0
08/02:00pm E 10 14 - - - - 10 Mostly cloudy - 24.0 1015.5 0.0
08/01:30pm ENE 12 15 - - - - 10 Mostly cloudy - 24.2 1015.7 0.0
08/01:00pm ENE 12 15 - - - - 10 Mostly cloudy - 22.6 1016.2 0.0
08/12:30pm SSE 5 8 - - - - 10 Mostly cloudy - 23.6 1016.6 0.0
08/12:00pm SE 6 8 - - - - 10 Cloudy - 23.3 1017.0 0.0
08/11:30am SSE 6 9 - - - - 10 Partly cloudy - 23.8 1017.3 0.0
08/11:00am SSE 6 8 - - - - 10 Partly cloudy - 23.3 1017.6 0.0
08/10:30am SE 6 10 - - - - 10 Partly cloudy - 23.0 1017.9 0.0
08/10:00am SSE 7 9 - - - - 10 Mostly clear - 22.6 1018.1 0.0
08/09:30am SSE 7 10 - - - - 10 Partly cloudy - 22.7 1018.1 0.0
08/09:00am S 7 9 - - - - 10 Cloudy - 21.5 1018.2 0.4
08/08:30am SSW 5 6 - - - - 10 Partly cloudy - 20.8 1017.9 0.4
08/08:00am SW 6 7 - - - - 10 Partly cloudy - 20.6 1017.7 0.4
08/07:59am SW 6 7 - - - - 10 Partly cloudy - 20.6 1017.7 0.4
08/07:55am SW 5 7 - - - - 10 Partly cloudy - 20.7 1017.7 0.4
08/07:30am SSW 7 8 - - - - 10 Mostly clear - 20.7 1017.3 0.4
08/07:22am SSE 6 7 - - - - 10 Partly cloudy - 20.8 1017.2 0.4
08/07:18am SE 6 7 - - - - 10 Partly cloudy - 20.8 1017.2 0.4
08/07:00am SSE 4 7 - - - - 10 Mostly clear - 20.5 1017.1 0.4
08/06:30am E 2 6 - - - - 10 Partly cloudy - 20.1 1016.8 0.4
08/06:20am ESE 3 5 - - - - 10 Partly cloudy - 20.6 1016.6 0.4
08/06:00am SE 5 6 - - - - 10 Cloudy - 20.6 1016.3 0.4
08/05:30am SE 6 7 - - - - 10 Partly cloudy - 20.6 1015.8 0.4
08/05:00am SE 7 9 - - - - 10 Partly cloudy - 20.8 1015.4 0.4
08/04:30am ESE 7 10 - - - - 10 Partly cloudy - 20.8 1015.3 0.4
08/04:00am ESE 7 9 - - - - 10 Partly cloudy - 20.8 1015.1 0.4
08/03:30am ESE 6 9 - - - - 10 Partly cloudy - 20.9 1015.2 0.2
08/03:00am E 6 7 - - - - 10 Cloudy Rain 21.0 1015.3 0.0
08/02:30am SE 6 7 - - - - 10 Partly cloudy - 21.1 1015.5 0.0
08/02:00am SE 7 10 - - - - 10 Cloudy - 21.2 1015.5 0.0
08/01:30am SE 8 10 - - - - 10 Partly cloudy - 21.4 1015.6 0.0
08/01:00am SE 9 11 - - - - 10 Partly cloudy - 22.0 1016.0 0.0
08/12:30am SE 8 10 - - - - 10 Partly cloudy - 22.3 1016.1 0.0
08/12:00am ESE 9 13 - - - - 10 Cloudy - 22.3 1016.2 0.0
 
Date/Time
EST
Wind Sea
Height
m
Swell Vis
km
Cloud Weather Temp
°C
Press
MSL
hPa
Rain since
9am
mm
Dir  Spd
kts
Gust
kts
Height
m
Period
s
Dir
07/11:30pm ESE 8 12 - - - - 10 Partly cloudy - 22.5 1016.3 0.0
07/11:26pm ESE 9 12 - - - - 10 Partly cloudy - 22.5 1016.3 0.0
07/11:00pm ESE 8 11 - - - - 10 Partly cloudy - 22.6 1016.3 0.0
07/10:55pm ESE 8 10 - - - - 10 Partly cloudy - 22.6 1016.3 0.0
07/10:30pm ESE 6 8 - - - - 10 Cloudy - 22.4 1016.4 0.0
07/10:00pm ESE 6 8 - - - - 10 Partly cloudy - 22.5 1016.2 0.0
07/09:30pm ESE 5 6 - - - - 10 Partly cloudy - 22.5 1016.2 0.0
07/09:00pm E 6 6 - - - - 10 - - 21.4 1015.9 0.0
07/08:30pm ESE 5 5 - - - - 10 - - 21.6 1015.6 0.0
07/08:00pm CALM 0 0 - - - - 10 - - 22.5 1015.4 0.0
07/07:30pm CALM 0 0 - - - - 10 - - 22.5 1015.1 0.0
07/07:00pm CALM 0 0 - - - - 10 - - 23.1 1014.7 0.0
07/06:30pm NE 3 4 - - - - 10 Partly cloudy - 22.7 1014.3 0.0
07/06:00pm ENE 7 8 - - - - 10 Mostly clear - 23.3 1013.9 0.0
07/05:30pm ENE 8 10 - - - - 10 - - 24.4 1013.8 0.0
07/05:00pm ENE 9 11 - - - - 10 Partly cloudy - 25.2 1013.4 0.0
07/04:30pm NE 8 11 - - - - 10 Partly cloudy - 25.1 1013.4 0.0
07/04:00pm NE 10 12 - - - - 10 Partly cloudy - 25.6 1013.3 0.0
07/03:30pm ENE 9 12 - - - - 10 Partly cloudy - 26.6 1013.2 0.0
07/03:00pm NE 10 12 - - - - 10 Partly cloudy - 26.3 1013.1 0.0
07/02:30pm NE 9 13 - - - - 10 Partly cloudy - 27.3 1013.4 0.0
07/02:00pm NNE 8 11 - - - - 10 Partly cloudy - 27.3 1013.5 0.0
07/01:30pm NE 8 10 - - - - 10 Cloudy - 26.1 1014.0 0.0
07/01:00pm NE 7 10 - - - - 10 Cloudy - 26.1 1014.6 0.0
07/12:30pm NE 7 8 - - - - 10 Partly cloudy - 25.4 1015.1 0.0
07/12:00pm NE 7 9 - - - - 10 Mostly cloudy - 26.0 1015.5 0.0
07/11:30am NE 7 9 - - - - 10 Cloudy - 25.6 1015.8 0.0
07/11:00am N 3 5 - - - - 10 Partly cloudy - 25.7 1016.1 0.0
07/10:30am NNE 1 4 - - - - 10 Partly cloudy - 25.4 1016.5 0.0
07/10:00am NE 2 5 - - - - 10 Partly cloudy - 24.5 1016.7 0.0
07/09:30am SSE 4 7 - - - - 10 Cloudy - 23.8 1017.0 0.0
07/09:00am S 3 5 - - - - 10 Mostly cloudy - 23.5 1016.8 0.0
07/08:30am CALM 0 0 - - - - 10 Partly cloudy - 22.9 1016.5 0.0
07/08:00am CALM 0 0 - - - - 10 Cloudy - 22.4 1016.3 0.0
07/07:30am CALM 0 0 - - - - 10 Cloudy - 22.0 1016.1 0.0
07/07:00am CALM 0 0 - - - - 10 Cloudy - 21.7 1015.7 0.0
07/06:30am CALM 0 0 - - - - 10 Cloudy - 22.1 1015.3 0.0
07/06:00am CALM 0 0 - - - - 10 Cloudy - 22.1 1015.0 0.0
07/05:30am CALM 0 0 - - - - 10 Cloudy - 22.0 1014.5 0.0
07/05:00am SW 4 5 - - - - 10 Cloudy - 21.9 1014.2 0.0
07/04:30am SSW 4 6 - - - - 9 Cloudy - 21.9 1014.0 0.0
07/04:00am W 3 5 - - - - 10 Cloudy - 22.4 1014.0 0.0
07/03:30am SE 1 4 - - - - 10 Cloudy - 22.7 1013.9 0.0
07/03:00am E 3 5 - - - - 10 Cloudy - 22.8 1013.7 0.0
07/02:30am SE 2 4 - - - - 10 Cloudy - 23.0 1013.9 0.0
07/02:00am S 6 7 - - - - 10 Cloudy - 22.9 1014.1 0.0
07/01:30am SSE 4 5 - - - - 10 Partly cloudy - 22.9 1014.0 0.0
07/01:00am ESE 4 6 - - - - 10 Partly cloudy - 22.8 1014.1 0.0
07/12:30am ESE 5 7 - - - - 10 Partly cloudy - 22.6 1014.3 0.0
07/12:00am ESE 7 8 - - - - 10 Cloudy - 22.7 1014.4 0.0
 
Date/Time
EST
Wind Sea
Height
m
Swell Vis
km
Cloud Weather Temp
°C
Press
MSL
hPa
Rain since
9am
mm
Dir  Spd
kts
Gust
kts
Height
m
Period
s
Dir
06/11:30pm ESE 6 7 - - - - 10 Partly cloudy - 22.7 1014.6 0.0
06/11:00pm ESE 5 6 - - - - 10 Partly cloudy - 22.6 1014.4 0.0
06/10:30pm SE 6 8 - - - - 10 Partly cloudy - 22.5 1014.1 0.0
06/10:00pm SE 4 5 - - - - 10 Cloudy - 22.2 1014.0 0.0
06/09:30pm SSE 4 5 - - - - 10 Partly cloudy - 21.6 1013.7 0.0
06/09:00pm ESE 5 6 - - - - 10 - - 22.0 1013.5 0.0
06/08:30pm E 4 5 - - - - 10 - - 22.3 1013.1 0.0
06/08:00pm ESE 6 7 - - - - 10 - - 22.3 1012.8 0.0
06/07:30pm ENE 7 9 - - - - 10 - - 22.2 1012.3 0.0
06/07:00pm ENE 6 7 - - - - 10 - - 22.3 1011.7 0.0
06/06:30pm ENE 5 6 - - - - 10 - - 22.5 1011.3 0.0
06/06:00pm ENE 6 7 - - - - 10 - - 23.2 1011.0 0.0
06/05:30pm ENE 8 9 - - - - 10 - - 24.2 1010.7 0.0
06/05:00pm ENE 7 8 - - - - 10 - - 24.9 1010.5 0.0
06/04:30pm ENE 8 9 - - - - 10 - - 25.3 1010.3 0.0
06/04:00pm ENE 8 10 - - - - 10 - - 25.7 1010.3 0.0
06/03:30pm NE 8 10 - - - - 10 - - 26.0 1010.5 0.0
06/03:00pm NE 9 12 - - - - 10 - - 25.3 1010.6 0.0
06/02:30pm NE 11 14 - - - - 10 - - 25.8 1010.8 0.0
06/02:00pm NE 11 15 - - - - 10 - - 26.1 1011.0 0.0
06/01:30pm ENE 9 12 - - - - 10 - - 27.1 1011.2 0.0
06/01:00pm N 7 9 - - - - 10 - - 27.2 1011.8 0.0
06/12:30pm NNE 9 18 - - - - 10 - - 26.7 1012.1 0.0
06/12:00pm NNW 7 9 - - - - 10 - - 26.4 1012.6 0.0
06/11:30am NNW 7 10 - - - - 10 - - 25.5 1013.2 0.0
06/11:00am N 8 13 - - - - 10 Partly cloudy - 25.2 1013.5 0.0
06/10:30am NNW 8 11 - - - - 10 Cloudy - 25.6 1014.0 0.0
06/10:00am NNW 8 12 - - - - 10 Cloudy - 24.8 1014.1 0.0
06/09:30am NNW 8 12 - - - - 10 Cloudy - 24.4 1014.0 0.0
06/09:00am NNW 8 11 - - - - 10 Cloudy - 24.2 1014.0 0.0
06/08:30am NW 7 9 - - - - 10 Cloudy - 23.5 1014.0 0.0
06/08:00am N 8 11 - - - - 10 Cloudy - 22.8 1013.3 0.0
06/07:30am CALM 0 0 - - - - 10 Cloudy - 22.6 1013.5 0.0
06/07:00am CALM 0 0 - - - - 10 Cloudy - 22.3 1013.2 0.0
06/06:30am CALM 0 0 - - - - 10 Cloudy - 22.2 1012.9 0.0
06/06:00am CALM 0 0 - - - - 10 Cloudy - 22.0 1012.6 0.0
06/05:30am CALM 0 0 - - - - 10 Cloudy - 21.9 1012.4 0.0
06/05:00am CALM 0 0 - - - - 10 Cloudy - 21.7 1012.2 0.0
06/04:30am CALM 0 0 - - - - 10 Cloudy - 21.6 1012.1 0.0
06/04:00am CALM 0 0 - - - - 10 Cloudy - 21.6 1011.9 0.0
06/03:30am CALM 0 0 - - - - 10 Cloudy - 21.4 1012.0 0.0
06/03:00am CALM 0 0 - - - - 10 Cloudy - 21.8 1012.1 0.0
06/02:58am CALM 0 0 - - - - 10 Cloudy - 21.7 1012.1 0.0
06/02:30am CALM 0 0 - - - - 10 Cloudy - 21.5 1012.3 0.0
06/02:00am CALM 0 0 - - - - 10 Cloudy - 21.3 1012.6 0.0
06/01:36am CALM 0 0 - - - - 10 Partly cloudy - 21.4 1012.6 0.0
06/01:30am CALM 0 0 - - - - 10 Cloudy - 21.5 1012.6 0.0
06/01:17am CALM 0 0 - - - - 10 Partly cloudy - 21.3 1012.7 0.0
06/01:09am CALM 0 0 - - - - 10 Partly cloudy - 21.2 1012.8 0.0
06/01:00am CALM 0 0 - - - - 10 Partly cloudy - 21.1 1012.8 0.0
06/12:30am E 3 4 - - - - 10 Partly cloudy - 20.8 1013.1 0.0
06/12:00am E 4 4 - - - - 10 Cloudy - 20.4 1013.3 0.0
 
Date/Time
EST
Wind Sea
Height
m
Swell Vis
km
Cloud Weather Temp
°C
Press
MSL
hPa
Rain since
9am
mm
Dir  Spd
kts
Gust
kts
Height
m
Period
s
Dir
05/11:33pm CALM 0 0 - - - - 10 Partly cloudy - 19.8 1013.4 0.0
05/11:30pm CALM 0 0 - - - - 10 Partly cloudy - 19.8 1013.4 0.0

Other formats

Comma delimited format used in spreadsheet applications
http://www.bom.gov.au/fwo/IDQ60701/IDQ60701.94294.axf

JavaScript Object Notation format (JSON) in row-major order
http://www.bom.gov.au/fwo/IDQ60701/IDQ60701.94294.json

Data quality

Most of these data are generated automatically and are frequently updated. Quality checks on data are not normally performed. It is possible for incorrect values to appear. Refer to information at About Latest Weather Observations and please check the disclaimer before using these data.